Time;durP1;ratioP1;P1;durP2;ratioP2;P2;SDS_P1;SDS_P2;PMS_P1;PMS_P2;Temp;Humidity;BMP_temperature;BMP_pressure;BME280_temperature;BME280_humidity;BME280_pressure;Samples;Min_cycle;Max_cycle;Signal;HPM_P1;HPM_P2
2022/11/28 00:01:28;;;;;;;12.48;4.78;;;7.40;99.90;;;;;;5101975;28;20489;-84
2022/11/28 00:03:54;;;;;;;9.23;4.47;;;7.30;99.90;;;;;;5076214;28;20039;-84
2022/11/28 00:06:20;;;;;;;9.23;3.47;;;7.30;99.90;;;;;;5093739;28;20092;-84
2022/11/28 00:08:46;;;;;;;10.27;4.78;;;7.30;99.90;;;;;;5089943;28;20043;-84
2022/11/28 00:11:14;;;;;;;9.57;4.53;;;7.30;99.90;;;;;;5092605;28;20096;-84
2022/11/28 00:13:41;;;;;;;9.40;4.53;;;7.40;99.90;;;;;;5109652;28;20101;-85
2022/11/28 00:16:07;;;;;;;9.27;4.55;;;7.30;99.90;;;;;;5093510;28;20144;-85
2022/11/28 00:18:33;;;;;;;8.98;4.45;;;7.40;99.90;;;;;;5076397;28;20043;-84
2022/11/28 00:21:08;;;;;;;10.90;4.38;;;7.40;99.90;;;;;;5076369;28;20036;-85
2022/11/28 00:23:33;;;;;;;9.30;4.47;;;7.40;99.90;;;;;;5092824;28;20170;-85
2022/11/28 00:26:14;;;;;;;9.90;4.60;;;7.40;99.90;;;;;;5102468;28;20110;-85
2022/11/28 00:28:40;;;;;;;10.05;4.30;;;7.30;99.90;;;;;;5095908;28;20036;-85
2022/11/28 00:31:10;;;;;;;9.90;5.07;;;7.40;99.90;;;;;;5113666;28;20122;-85
2022/11/28 00:33:36;;;;;;;11.35;4.60;;;7.40;99.90;;;;;;5113317;28;20109;-84
2022/11/28 00:36:03;;;;;;;10.48;4.68;;;7.40;99.90;;;;;;5096244;28;20047;-85
2022/11/28 00:38:29;;;;;;;9.48;4.68;;;7.40;99.90;;;;;;5113350;28;20040;-85
2022/11/28 00:41:06;;;;;;;9.95;4.60;;;7.40;99.90;;;;;;5113473;28;20051;-85
2022/11/28 00:43:33;;;;;;;8.70;4.25;;;7.40;99.90;;;;;;5095884;28;20378;-84
2022/11/28 00:45:58;;;;;;;11.75;4.93;;;7.40;99.90;;;;;;5082808;28;20036;-84
2022/11/28 00:48:25;;;;;;;10.10;4.60;;;7.40;99.90;;;;;;5092897;28;20028;-84
2022/11/28 00:50:51;;;;;;;8.65;4.28;;;7.40;99.90;;;;;;5092693;28;20397;-84
2022/11/28 00:53:16;;;;;;;9.90;4.25;;;7.40;99.90;;;;;;5075185;28;20119;-84
2022/11/28 00:55:42;;;;;;;10.68;4.68;;;7.40;99.90;;;;;;5092845;28;20075;-84
2022/11/28 00:58:08;;;;;;;10.98;4.93;;;7.40;99.90;;;;;;5092512;28;20039;-84
2022/11/28 01:00:33;;;;;;;9.27;4.13;;;7.50;99.90;;;;;;5092408;28;20040;-84
2022/11/28 01:02:59;;;;;;;9.65;4.15;;;7.50;99.90;;;;;;5091963;28;20044;-84
2022/11/28 01:05:25;;;;;;;11.00;4.22;;;7.50;99.90;;;;;;5092266;28;20036;-84
2022/11/28 01:07:50;;;;;;;10.07;4.70;;;7.50;99.90;;;;;;5096488;28;20035;-84
2022/11/28 01:10:16;;;;;;;10.48;5.05;;;7.50;99.90;;;;;;5112777;28;20046;-84
2022/11/28 01:12:42;;;;;;;9.77;4.60;;;7.50;99.90;;;;;;5095357;28;20476;-84
2022/11/28 01:15:10;;;;;;;10.88;5.15;;;7.50;99.90;;;;;;5095527;28;20046;-84
2022/11/28 01:17:36;;;;;;;11.23;5.40;;;7.50;99.90;;;;;;5095625;28;20139;-84
2022/11/28 01:20:04;;;;;;;10.15;4.60;;;7.50;99.90;;;;;;5095480;28;20536;-84
2022/11/28 01:22:30;;;;;;;11.25;4.63;;;7.50;99.90;;;;;;5112055;28;20147;-84
2022/11/28 01:24:55;;;;;;;11.80;4.60;;;7.50;99.90;;;;;;5112467;28;20456;-84
2022/11/28 01:27:21;;;;;;;11.75;4.88;;;7.60;99.90;;;;;;5095261;28;20042;-84
2022/11/28 01:29:47;;;;;;;10.13;5.03;;;7.50;99.90;;;;;;5112265;28;20032;-84
2022/11/28 01:32:13;;;;;;;9.88;4.65;;;7.50;99.90;;;;;;5093329;28;20504;-84
2022/11/28 01:34:39;;;;;;;9.88;4.80;;;7.60;99.90;;;;;;5092203;28;20043;-84
2022/11/28 01:37:04;;;;;;;10.40;5.10;;;7.60;99.90;;;;;;5091962;28;20493;-84
2022/11/28 01:39:30;;;;;;;9.68;4.85;;;7.60;99.90;;;;;;5073983;28;20497;-84
2022/11/28 01:41:55;;;;;;;9.80;4.55;;;7.60;99.90;;;;;;5091639;28;20122;-85
2022/11/28 01:44:21;;;;;;;10.30;4.82;;;7.60;99.90;;;;;;5091355;28;20032;-84
2022/11/28 01:46:46;;;;;;;10.52;5.05;;;7.60;99.90;;;;;;5091716;28;20139;-84
2022/11/28 01:49:32;;;;;;;11.57;5.05;;;7.60;99.90;;;;;;5091537;28;20095;-84
2022/11/28 01:52:02;;;;;;;10.35;4.68;;;7.60;99.90;;;;;;5091393;28;20048;-84
2022/11/28 01:54:29;;;;;;;10.82;4.68;;;7.60;99.90;;;;;;5091438;28;20131;-84
2022/11/28 01:57:02;;;;;;;11.38;4.65;;;7.60;99.90;;;;;;5091364;28;20040;-84
2022/11/28 01:59:32;;;;;;;9.38;4.55;;;7.60;99.90;;;;;;5074451;28;20036;-84
2022/11/28 02:01:57;;;;;;;10.35;4.97;;;7.60;99.90;;;;;;5074407;28;20032;-84
2022/11/28 02:04:26;;;;;;;9.93;4.22;;;7.60;99.90;;;;;;5091088;28;20039;-84
2022/11/28 02:06:52;;;;;;;9.75;4.57;;;7.60;99.90;;;;;;5089068;28;20036;-85
2022/11/28 02:09:18;;;;;;;9.73;5.05;;;7.60;99.90;;;;;;5094506;28;20296;-84
2022/11/28 02:11:56;;;;;;;10.90;4.65;;;7.70;99.90;;;;;;5089677;28;20413;-85
2022/11/28 02:14:33;;;;;;;10.68;4.55;;;7.60;99.90;;;;;;5090788;28;20397;-84
2022/11/28 02:17:23;;;;;;;10.52;4.88;;;7.60;99.90;;;;;;5090833;28;20036;-84
2022/11/28 02:19:58;;;;;;;9.77;4.50;;;7.70;99.90;;;;;;5074408;28;20040;-86
2022/11/28 02:22:26;;;;;;;10.43;4.75;;;7.70;99.90;;;;;;5090794;28;20405;-86
2022/11/28 02:25:07;;;;;;;10.48;4.63;;;7.70;99.90;;;;;;5091121;28;20051;-86
2022/11/28 02:27:51;;;;;;;9.73;5.00;;;7.70;99.90;;;;;;5073975;28;20078;-86
2022/11/28 02:30:24;;;;;;;10.68;5.00;;;7.70;99.90;;;;;;5090616;28;20036;-86
2022/11/28 02:33:21;;;;;;;11.68;4.85;;;7.70;99.90;;;;;;5090542;28;20695;-86
2022/11/28 02:35:58;;;;;;;11.63;5.00;;;7.70;99.90;;;;;;5090780;28;20529;-87
2022/11/28 02:38:43;;;;;;;14.98;5.53;;;7.70;99.90;;;;;;5074195;28;20401;-86
2022/11/28 02:41:24;;;;;;;9.50;4.72;;;7.70;99.90;;;;;;5074146;28;20044;-86
2022/11/28 02:44:11;;;;;;;11.82;5.30;;;7.70;99.90;;;;;;5090313;28;20043;-86
2022/11/28 02:47:02;;;;;;;10.73;4.88;;;7.70;99.90;;;;;;5090619;28;20524;-86
2022/11/28 02:49:35;;;;;;;10.07;4.63;;;7.80;99.90;;;;;;5090650;28;20040;-86
2022/11/28 02:52:08;;;;;;;10.63;5.03;;;7.80;99.90;;;;;;5090462;28;20607;-86
2022/11/28 02:54:35;;;;;;;10.95;5.18;;;7.80;99.90;;;;;;5073784;28;20039;-86
2022/11/28 02:57:02;;;;;;;11.15;4.75;;;7.80;99.90;;;;;;5090440;28;20047;-87
2022/11/28 02:59:36;;;;;;;10.40;4.32;;;7.80;99.90;;;;;;5073512;28;20040;-86
2022/11/28 03:02:23;;;;;;;10.32;5.05;;;7.80;99.90;;;;;;5090142;28;20044;-86
2022/11/28 03:04:58;;;;;;;10.38;5.55;;;7.80;99.90;;;;;;5089611;28;20101;-87
2022/11/28 03:07:39;;;;;;;10.25;5.25;;;7.80;99.90;;;;;;5084359;28;20510;-87
2022/11/28 03:10:11;;;;;;;12.30;5.13;;;7.90;99.90;;;;;;5069551;28;20036;-87
2022/11/28 03:13:03;;;;;;;13.55;5.78;;;7.90;99.90;;;;;;5070092;28;20036;-87
2022/11/28 03:16:04;;;;;;;11.38;5.13;;;7.90;99.90;;;;;;5053830;28;20441;-86
2022/11/28 03:18:38;;;;;;;11.40;5.32;;;7.90;99.90;;;;;;5067094;28;20078;-86
2022/11/28 03:21:13;;;;;;;10.73;5.25;;;8.00;99.90;;;;;;5070474;28;20174;-86
2022/11/28 03:23:56;;;;;;;11.43;5.03;;;7.90;99.90;;;;;;5052976;28;20101;-86
2022/11/28 03:26:43;;;;;;;11.60;5.97;;;8.00;99.90;;;;;;5053377;28;20075;-87
2022/11/28 03:29:35;;;;;;;9.45;4.85;;;8.00;99.90;;;;;;5070315;28;20095;-87
2022/11/28 03:32:08;;;;;;;10.13;4.97;;;8.00;99.90;;;;;;5070137;28;20448;-87
2022/11/28 03:34:39;;;;;;;11.20;5.30;;;8.00;99.90;;;;;;5053425;28;20043;-86
2022/11/28 03:37:13;;;;;;;10.43;5.45;;;8.00;99.90;;;;;;5069865;28;20037;-87
2022/11/28 03:39:43;;;;;;;11.75;5.63;;;8.00;99.90;;;;;;5069991;28;20047;-87
2022/11/28 03:42:21;;;;;;;12.20;5.57;;;8.10;99.90;;;;;;5053117;28;20048;-87
2022/11/28 03:44:54;;;;;;;12.65;6.20;;;8.10;99.90;;;;;;5053353;28;20036;-86
2022/11/28 03:47:23;;;;;;;13.43;6.35;;;8.10;99.90;;;;;;5069733;28;20406;-86
2022/11/28 03:49:55;;;;;;;13.13;6.45;;;8.10;99.90;;;;;;5053186;28;20047;-87
2022/11/28 03:52:27;;;;;;;12.15;6.03;;;8.10;99.90;;;;;;5069689;28;20123;-86
2022/11/28 03:55:17;;;;;;;10.40;5.70;;;8.10;99.90;;;;;;5069858;28;20036;-86
2022/11/28 03:58:05;;;;;;;12.60;6.03;;;8.10;99.90;;;;;;5069891;28;20067;-87
2022/11/28 04:00:35;;;;;;;12.60;6.00;;;8.10;99.90;;;;;;5069674;28;20040;-86
2022/11/28 04:03:08;;;;;;;11.65;6.05;;;8.10;99.90;;;;;;5055080;28;20109;-86
2022/11/28 04:05:45;;;;;;;13.52;6.28;;;8.10;99.90;;;;;;5056630;28;20043;-86
2022/11/28 04:08:14;;;;;;;12.13;6.85;;;8.10;99.90;;;;;;5085911;28;20075;-86
2022/11/28 04:10:44;;;;;;;12.35;6.45;;;8.10;99.90;;;;;;5093417;28;20036;-87
2022/11/28 04:13:19;;;;;;;13.50;7.55;;;8.10;99.90;;;;;;5076249;28;20043;-86
2022/11/28 04:16:06;;;;;;;11.23;6.82;;;8.10;99.90;;;;;;5093296;28;20065;-86
2022/11/28 04:18:46;;;;;;;14.35;7.18;;;8.10;99.90;;;;;;5076528;28;20085;-86
2022/11/28 04:21:21;;;;;;;15.98;7.75;;;8.10;99.90;;;;;;5093616;28;20096;-86
2022/11/28 04:23:49;;;;;;;14.43;7.55;;;8.10;99.90;;;;;;5092856;28;20043;-86
2022/11/28 04:26:23;;;;;;;15.68;7.45;;;8.10;99.90;;;;;;5093107;28;20040;-86
2022/11/28 04:28:51;;;;;;;14.10;7.97;;;8.10;99.90;;;;;;5093230;28;20048;-86
2022/11/28 04:31:21;;;;;;;14.73;7.57;;;8.10;99.90;;;;;;5076082;28;20040;-86
2022/11/28 04:33:49;;;;;;;16.55;7.57;;;8.10;99.90;;;;;;5092840;28;20044;-86
2022/11/28 04:36:19;;;;;;;13.43;8.05;;;8.10;99.90;;;;;;5092940;28;20043;-86
2022/11/28 04:38:54;;;;;;;13.73;8.15;;;8.10;99.90;;;;;;5093268;28;20476;-86
2022/11/28 04:41:27;;;;;;;13.77;8.48;;;8.10;99.90;;;;;;5093392;28;20161;-86
2022/11/28 04:43:59;;;;;;;13.05;8.57;;;8.10;99.90;;;;;;5092494;28;20056;-86
2022/11/28 04:46:36;;;;;;;14.00;8.23;;;8.20;99.90;;;;;;5092813;28;20089;-86
2022/11/28 04:49:01;;;;;;;15.27;8.25;;;8.20;99.90;;;;;;5092793;28;20501;-86
2022/11/28 04:51:53;;;;;;;14.07;8.43;;;8.20;99.90;;;;;;5092662;28;20039;-87
2022/11/28 04:54:50;;;;;;;17.48;8.88;;;8.20;99.90;;;;;;5092162;28;20044;-87
2022/11/28 04:57:53;;;;;;;14.00;8.48;;;8.20;99.90;;;;;;5092706;28;20497;-87
2022/11/28 05:00:20;;;;;;;15.32;7.53;;;8.20;99.90;;;;;;5014671;28;20045;-87
2022/11/28 05:02:50;;;;;;;13.68;8.65;;;8.30;99.90;;;;;;4997953;28;20057;-87
2022/11/28 05:05:27;;;;;;;14.10;8.63;;;8.30;99.90;;;;;;4998532;28;20124;-87
2022/11/28 05:07:52;;;;;;;14.25;8.25;;;8.30;99.90;;;;;;4996058;28;20484;-86
2022/11/28 05:10:19;;;;;;;13.63;9.20;;;8.30;99.90;;;;;;5014444;28;20577;-86
2022/11/28 05:12:44;;;;;;;15.80;9.48;;;8.30;99.90;;;;;;4997743;28;20765;-86
2022/11/28 05:15:11;;;;;;;14.07;9.57;;;8.30;99.90;;;;;;5014708;28;20052;-86
2022/11/28 05:17:37;;;;;;;14.27;9.05;;;8.30;99.90;;;;;;5014320;28;20038;-86
2022/11/28 05:20:04;;;;;;;16.02;9.68;;;8.30;99.90;;;;;;5014712;28;20096;-87
2022/11/28 05:22:30;;;;;;;16.35;9.70;;;8.40;99.90;;;;;;5014083;28;20507;-86
2022/11/28 05:24:55;;;;;;;14.82;9.15;;;8.40;99.90;;;;;;5014296;28;20038;-86
2022/11/28 05:27:21;;;;;;;18.65;11.02;;;8.40;99.90;;;;;;5014087;28;20132;-86
2022/11/28 05:29:47;;;;;;;14.25;9.68;;;8.40;99.90;;;;;;4997926;28;20060;-87
2022/11/28 05:32:13;;;;;;;14.00;9.27;;;8.40;99.90;;;;;;5013866;28;20045;-86
2022/11/28 05:34:38;;;;;;;15.27;10.48;;;8.40;99.90;;;;;;5065315;28;20505;-87
2022/11/28 05:37:05;;;;;;;16.40;10.32;;;8.40;99.90;;;;;;5091730;28;20461;-86
2022/11/28 05:39:31;;;;;;;15.38;10.93;;;8.40;99.90;;;;;;5092036;28;20375;-86
2022/11/28 05:41:57;;;;;;;14.88;10.45;;;8.40;99.90;;;;;;5091563;28;20527;-87
2022/11/28 05:44:23;;;;;;;16.77;10.70;;;8.40;99.90;;;;;;5091751;28;20458;-87
2022/11/28 05:46:48;;;;;;;17.70;10.52;;;8.50;99.90;;;;;;5074732;28;20028;-86
2022/11/28 05:49:14;;;;;;;15.25;10.00;;;8.50;99.90;;;;;;5074720;28;20051;-86
2022/11/28 05:51:39;;;;;;;15.07;10.18;;;8.40;99.90;;;;;;5091449;28;20101;-86
2022/11/28 05:54:05;;;;;;;15.40;8.63;;;8.40;99.90;;;;;;5091101;28;20040;-87
2022/11/28 05:56:31;;;;;;;15.93;10.43;;;8.50;99.90;;;;;;5091571;28;20082;-87
2022/11/28 05:58:57;;;;;;;13.95;9.52;;;8.50;99.90;;;;;;5091645;28;20051;-87
2022/11/28 06:01:25;;;;;;;13.45;9.52;;;8.50;99.90;;;;;;5091361;28;20039;-87
2022/11/28 06:03:56;;;;;;;14.23;8.93;;;8.40;99.90;;;;;;5090939;28;20487;-87
2022/11/28 06:06:23;;;;;;;14.00;8.57;;;8.50;99.90;;;;;;5074321;28;20059;-87
2022/11/28 06:08:52;;;;;;;14.10;8.45;;;8.50;99.90;;;;;;5075059;28;20032;-86
2022/11/28 06:11:20;;;;;;;13.05;8.90;;;8.50;99.90;;;;;;5074384;28;20097;-87
2022/11/28 06:13:47;;;;;;;15.85;8.82;;;8.50;99.90;;;;;;5082553;28;20068;-87
2022/11/28 06:16:16;;;;;;;13.98;7.88;;;8.50;99.90;;;;;;5087807;28;20048;-86
2022/11/28 06:18:42;;;;;;;11.82;7.28;;;8.50;99.90;;;;;;5070850;28;20131;-87
2022/11/28 06:21:09;;;;;;;12.88;7.63;;;8.50;99.90;;;;;;5087686;28;20557;-87
2022/11/28 06:23:35;;;;;;;14.15;8.27;;;8.50;99.90;;;;;;5070343;28;20440;-86
2022/11/28 06:26:10;;;;;;;12.63;7.38;;;8.50;99.90;;;;;;5119692;27;20560;-87
2022/11/28 06:28:37;;;;;;;11.48;6.78;;;8.50;99.90;;;;;;5090570;28;20032;-87
2022/11/28 06:31:03;;;;;;;12.10;7.55;;;8.50;99.90;;;;;;5102272;28;20142;-87
2022/11/28 06:33:29;;;;;;;12.48;7.72;;;8.50;99.90;;;;;;5090553;28;20048;-87
2022/11/28 06:36:03;;;;;;;11.50;7.15;;;8.50;99.90;;;;;;5073856;28;20043;-87
2022/11/28 06:38:29;;;;;;;12.00;7.03;;;8.50;99.90;;;;;;5074130;28;20448;-87
2022/11/28 06:40:56;;;;;;;11.40;6.35;;;8.50;99.90;;;;;;5090617;28;20044;-87
2022/11/28 06:43:22;;;;;;;10.32;5.43;;;8.50;99.90;;;;;;5073492;28;20051;-87
2022/11/28 06:45:47;;;;;;;12.02;6.53;;;8.50;99.90;;;;;;5090624;28;20040;-87
2022/11/28 06:48:13;;;;;;;11.68;7.13;;;8.50;99.90;;;;;;5090939;28;20046;-87
2022/11/28 06:50:38;;;;;;;13.10;6.55;;;8.50;99.90;;;;;;5090666;28;20075;-87
2022/11/28 06:53:04;;;;;;;12.07;6.55;;;8.40;99.90;;;;;;5090305;28;20048;-87
2022/11/28 06:55:29;;;;;;;12.45;6.97;;;8.40;99.90;;;;;;5073773;28;20036;-87
2022/11/28 06:57:55;;;;;;;12.05;6.88;;;8.50;99.90;;;;;;5090124;28;20039;-87
2022/11/28 07:00:20;;;;;;;11.48;6.75;;;8.50;99.90;;;;;;5090564;28;20044;-87
2022/11/28 07:02:46;;;;;;;12.90;7.60;;;8.40;99.90;;;;;;5090310;28;20044;-87
2022/11/28 07:05:15;;;;;;;12.57;7.57;;;8.40;99.90;;;;;;5090509;28;20123;-87
2022/11/28 07:07:44;;;;;;;12.05;6.90;;;8.40;99.90;;;;;;5087350;28;20119;-87
2022/11/28 07:10:10;;;;;;;12.20;6.57;;;8.50;99.90;;;;;;5073709;28;20043;-87
2022/11/28 07:12:36;;;;;;;12.30;6.75;;;8.40;99.90;;;;;;5090464;28;20401;-87
2022/11/28 07:15:01;;;;;;;12.52;6.60;;;8.40;99.90;;;;;;5073637;28;20489;-87
2022/11/28 07:17:27;;;;;;;12.57;7.25;;;8.40;99.90;;;;;;5090568;28;20144;-87
2022/11/28 07:19:52;;;;;;;12.00;6.57;;;8.40;99.90;;;;;;5090585;28;20184;-87
2022/11/28 07:22:18;;;;;;;12.90;7.30;;;8.40;99.90;;;;;;5089984;28;20571;-87
2022/11/28 07:24:45;;;;;;;14.50;7.75;;;8.40;99.90;;;;;;5090280;28;20028;-87
2022/11/28 07:27:10;;;;;;;12.82;7.32;;;8.40;99.90;;;;;;5073379;28;20044;-87
2022/11/28 07:29:36;;;;;;;11.43;7.35;;;8.40;99.90;;;;;;5090275;28;20028;-87
2022/11/28 07:32:04;;;;;;;12.55;7.70;;;8.40;99.90;;;;;;5073275;28;20477;-87
2022/11/28 07:34:30;;;;;;;11.70;7.20;;;8.40;99.90;;;;;;5090093;28;20125;-87
2022/11/28 07:36:55;;;;;;;12.38;8.35;;;8.40;99.90;;;;;;5073668;28;20075;-87
2022/11/28 07:39:21;;;;;;;14.68;8.30;;;8.40;99.90;;;;;;5077335;28;20036;-86
2022/11/28 07:41:47;;;;;;;14.07;7.93;;;8.40;99.90;;;;;;5093842;28;20037;-87
2022/11/28 07:44:16;;;;;;;13.80;7.65;;;8.50;99.90;;;;;;5076872;28;20044;-87
2022/11/28 07:46:43;;;;;;;14.40;7.53;;;8.40;99.90;;;;;;5093861;28;20032;-87
2022/11/28 07:49:08;;;;;;;10.93;7.35;;;8.50;99.90;;;;;;5077235;28;20028;-86
2022/11/28 07:51:34;;;;;;;13.43;8.25;;;8.40;99.90;;;;;;5093542;28;20085;-87
2022/11/28 07:54:01;;;;;;;14.80;8.02;;;8.50;99.90;;;;;;5076830;28;20040;-86
2022/11/28 07:56:29;;;;;;;14.00;8.77;;;8.40;99.90;;;;;;5093887;28;20047;-86
2022/11/28 07:58:55;;;;;;;13.45;8.20;;;8.40;99.90;;;;;;5076741;28;20090;-87
2022/11/28 08:01:27;;;;;;;13.00;8.43;;;8.50;99.90;;;;;;5093627;28;20048;-87
2022/11/28 08:03:53;;;;;;;15.32;9.63;;;8.50;99.90;;;;;;5092821;28;20055;-87
2022/11/28 08:06:24;;;;;;;14.93;8.95;;;8.50;99.90;;;;;;5093666;28;20042;-86
2022/11/28 08:08:51;;;;;;;15.65;9.02;;;8.50;99.90;;;;;;5094609;28;20489;-86
2022/11/28 08:11:18;;;;;;;14.30;8.98;;;8.50;99.90;;;;;;5092828;28;20036;-87
2022/11/28 08:13:44;;;;;;;14.52;9.45;;;8.50;99.90;;;;;;5076141;28;20040;-87
2022/11/28 08:16:15;;;;;;;14.98;9.18;;;8.50;99.90;;;;;;5093357;28;20562;-87
2022/11/28 08:18:41;;;;;;;15.80;9.73;;;8.50;99.90;;;;;;5073888;28;20047;-86
2022/11/28 08:21:19;;;;;;;14.18;8.32;;;8.50;99.90;;;;;;5092326;28;20067;-87
2022/11/28 08:23:45;;;;;;;15.10;9.70;;;8.50;99.90;;;;;;5092129;28;20039;-86
2022/11/28 08:26:14;;;;;;;15.20;9.77;;;8.50;99.90;;;;;;5092581;28;20032;-87
2022/11/28 08:28:40;;;;;;;15.85;10.15;;;8.50;99.90;;;;;;5091714;28;20032;-87
2022/11/28 08:31:11;;;;;;;14.45;10.07;;;8.50;99.90;;;;;;5092287;28;20036;-87
2022/11/28 08:33:37;;;;;;;15.85;10.68;;;8.50;99.90;;;;;;5075123;28;20050;-86
2022/11/28 08:36:04;;;;;;;16.48;10.65;;;8.50;99.90;;;;;;5075171;28;20061;-87
2022/11/28 08:38:30;;;;;;;14.70;10.40;;;8.50;99.90;;;;;;5092249;28;20043;-87
2022/11/28 08:41:04;;;;;;;15.88;11.20;;;8.50;99.90;;;;;;5075088;28;20050;-86
2022/11/28 08:43:29;;;;;;;14.98;9.68;;;8.50;99.90;;;;;;5091846;28;20051;-87
2022/11/28 08:45:55;;;;;;;15.80;10.13;;;8.50;99.90;;;;;;5091936;28;20040;-86
2022/11/28 08:48:21;;;;;;;16.65;10.60;;;8.50;99.90;;;;;;5091846;28;20036;-87
2022/11/28 08:50:47;;;;;;;14.95;10.40;;;8.50;99.90;;;;;;5075374;28;20034;-86
2022/11/28 08:53:12;;;;;;;16.58;10.98;;;8.50;99.90;;;;;;5075071;28;20119;-86
2022/11/28 08:55:41;;;;;;;15.18;10.43;;;8.50;99.90;;;;;;5075177;28;20153;-86
2022/11/28 08:58:06;;;;;;;15.15;10.32;;;8.50;99.90;;;;;;5075268;28;20043;-87
2022/11/28 09:00:32;;;;;;;16.15;10.15;;;8.50;99.90;;;;;;5075349;28;20096;-86
2022/11/28 09:02:58;;;;;;;16.42;11.23;;;8.50;99.90;;;;;;5074828;28;20032;-87
2022/11/28 09:05:23;;;;;;;15.85;11.35;;;8.50;99.90;;;;;;5091454;28;20462;-86
2022/11/28 09:07:49;;;;;;;15.73;11.27;;;8.60;99.90;;;;;;5090355;28;20114;-87
2022/11/28 09:10:14;;;;;;;16.77;10.43;;;8.60;99.90;;;;;;5074199;28;20079;-86
2022/11/28 09:12:40;;;;;;;15.63;9.77;;;8.60;99.90;;;;;;5091346;28;20039;-87
2022/11/28 09:15:06;;;;;;;14.65;10.38;;;8.50;99.90;;;;;;5091803;28;20413;-86
2022/11/28 09:17:32;;;;;;;15.23;10.68;;;8.60;99.90;;;;;;5075049;28;20102;-89
2022/11/28 09:19:57;;;;;;;15.07;10.20;;;8.60;99.90;;;;;;5091648;28;20497;-87
2022/11/28 09:22:23;;;;;;;15.10;10.00;;;8.60;99.90;;;;;;5091511;28;20056;-87
2022/11/28 09:24:48;;;;;;;16.00;10.07;;;8.60;99.90;;;;;;5091208;28;20036;-87
2022/11/28 09:27:14;;;;;;;16.35;10.88;;;8.60;99.90;;;;;;5125056;27;20067;-87
2022/11/28 09:29:39;;;;;;;15.10;9.60;;;8.60;99.90;;;;;;5125606;27;20044;-87
2022/11/28 09:32:05;;;;;;;17.38;10.32;;;8.60;99.90;;;;;;5090265;28;20447;-87
2022/11/28 09:34:30;;;;;;;15.57;10.65;;;8.60;99.90;;;;;;5074247;28;20036;-87
2022/11/28 09:36:56;;;;;;;15.07;9.93;;;8.60;99.90;;;;;;5115248;27;20380;-87
2022/11/28 09:39:21;;;;;;;15.35;10.27;;;8.60;99.90;;;;;;5097376;28;20032;-87
2022/11/28 09:42:05;;;;;;;16.42;10.73;;;8.60;99.90;;;;;;5098991;28;20515;-87
2022/11/28 09:44:41;;;;;;;15.00;9.90;;;8.60;99.90;;;;;;5072092;28;20116;-87
2022/11/28 09:47:22;;;;;;;17.23;10.50;;;8.60;99.90;;;;;;5071389;28;20112;-87
2022/11/28 09:50:02;;;;;;;14.90;10.07;;;8.60;99.90;;;;;;5088525;28;20024;-87
2022/11/28 09:53:00;;;;;;;16.98;10.35;;;8.60;99.90;;;;;;5088349;28;20039;-87
2022/11/28 09:55:37;;;;;;;13.45;8.13;;;8.60;99.90;;;;;;5090798;28;20050;-87
2022/11/28 09:58:28;;;;;;;15.30;9.77;;;8.60;99.90;;;;;;5091120;28;20042;-87
2022/11/28 10:01:21;;;;;;;17.55;9.05;;;8.60;99.90;;;;;;5073142;28;20043;-87
2022/11/28 10:04:14;;;;;;;13.98;9.40;;;8.60;99.90;;;;;;5073663;28;20525;-87
2022/11/28 10:06:51;;;;;;;14.43;8.15;;;8.60;99.90;;;;;;5089931;28;20443;-88
2022/11/28 10:09:35;;;;;;;13.88;8.82;;;8.60;99.90;;;;;;5073379;28;20036;-87
2022/11/28 10:12:18;;;;;;;12.45;8.50;;;8.60;99.90;;;;;;5087454;28;20097;-87
2022/11/28 10:15:40;;;;;;;12.35;7.50;;;8.60;99.90;;;;;;5089472;28;20040;-86
2022/11/28 10:18:39;;;;;;;12.50;7.47;;;8.60;99.90;;;;;;5028090;28;20041;-87
2022/11/28 10:21:21;;;;;;;13.00;8.02;;;8.60;99.90;;;;;;5040479;28;20041;-87
2022/11/28 10:23:50;;;;;;;12.27;7.82;;;8.60;99.90;;;;;;5012885;28;20056;-87
2022/11/28 10:26:25;;;;;;;11.55;7.75;;;8.70;99.90;;;;;;5029917;28;20079;-87
2022/11/28 10:28:54;;;;;;;12.55;7.63;;;8.60;99.90;;;;;;5014378;28;20596;-88
2022/11/28 10:31:40;;;;;;;14.25;8.30;;;8.70;99.90;;;;;;5029827;28;20115;-87
2022/11/28 10:34:29;;;;;;;11.57;7.07;;;8.70;99.90;;;;;;5031366;28;20045;-87
2022/11/28 10:37:06;;;;;;;11.77;6.57;;;8.70;99.90;;;;;;5030913;28;20127;-87
2022/11/28 10:39:36;;;;;;;11.20;7.13;;;8.60;99.90;;;;;;5014446;28;20045;-87
2022/11/28 10:42:20;;;;;;;12.48;7.50;;;8.70;99.90;;;;;;5014099;28;20069;-87
2022/11/28 10:45:04;;;;;;;11.35;7.38;;;8.70;99.90;;;;;;5030520;28;20041;-87
2022/11/28 10:48:00;;;;;;;11.40;6.65;;;8.70;99.90;;;;;;5032490;28;20044;-87
2022/11/28 10:50:48;;;;;;;12.65;7.38;;;8.70;99.90;;;;;;5085909;28;20115;-88
2022/11/28 10:53:25;;;;;;;11.95;7.75;;;8.70;99.90;;;;;;5085877;28;20036;-87
2022/11/28 10:56:10;;;;;;;13.32;8.20;;;8.70;99.90;;;;;;5098126;28;20050;-87
2022/11/28 10:58:42;;;;;;;11.63;7.43;;;8.70;99.90;;;;;;5110097;28;20046;-87
2022/11/28 11:01:09;;;;;;;11.93;6.63;;;8.80;99.90;;;;;;5087108;28;20508;-87
2022/11/28 11:03:36;;;;;;;12.75;7.15;;;8.80;99.90;;;;;;5112971;28;20036;-88
2022/11/28 11:06:02;;;;;;;10.93;6.60;;;8.80;99.90;;;;;;5096040;28;20490;-87
2022/11/28 11:08:36;;;;;;;11.68;6.88;;;8.70;99.90;;;;;;5085220;28;20032;-87
2022/11/28 11:11:06;;;;;;;11.10;6.65;;;8.80;99.90;;;;;;5087183;28;20537;-87
2022/11/28 11:13:35;;;;;;;12.27;6.90;;;8.80;99.90;;;;;;5094844;28;20088;-87
2022/11/28 11:16:06;;;;;;;11.88;6.57;;;8.80;99.90;;;;;;5091793;28;20040;-87
2022/11/28 11:18:36;;;;;;;11.93;7.53;;;8.80;99.90;;;;;;5114113;28;20032;-88
2022/11/28 11:21:08;;;;;;;10.40;6.60;;;8.80;99.90;;;;;;5095989;28;20357;-87
2022/11/28 11:23:34;;;;;;;10.43;6.60;;;8.80;99.90;;;;;;5073172;28;20081;-87
2022/11/28 11:26:00;;;;;;;11.40;6.88;;;8.80;99.90;;;;;;5071719;28;20032;-87
2022/11/28 11:28:47;;;;;;;12.48;7.40;;;8.80;99.90;;;;;;5072352;28;20032;-87
2022/11/28 11:31:29;;;;;;;13.52;6.85;;;8.80;99.90;;;;;;5091515;28;20048;-87
2022/11/28 11:34:16;;;;;;;11.35;6.45;;;8.80;99.90;;;;;;5072615;28;20039;-87
2022/11/28 11:36:42;;;;;;;10.68;6.72;;;8.80;99.90;;;;;;5074685;28;20066;-88
2022/11/28 11:39:11;;;;;;;10.43;6.80;;;8.90;99.90;;;;;;5083444;28;20032;-89
2022/11/28 11:42:03;;;;;;;11.02;7.20;;;8.80;99.90;;;;;;5113370;28;20040;-88
2022/11/28 11:44:33;;;;;;;11.52;6.53;;;8.90;99.90;;;;;;5073783;28;20059;-88
2022/11/28 11:47:04;;;;;;;13.52;7.72;;;8.90;99.90;;;;;;5112854;28;20047;-87
2022/11/28 11:49:40;;;;;;;10.37;6.97;;;8.90;99.90;;;;;;5094465;28;20724;-88
2022/11/28 11:52:11;;;;;;;14.60;7.07;;;8.90;99.90;;;;;;5106689;28;20168;-88
2022/11/28 11:54:55;;;;;;;10.85;6.60;;;8.90;99.90;;;;;;5113500;28;20047;-87
2022/11/28 11:57:22;;;;;;;12.70;7.72;;;8.90;99.90;;;;;;5101471;28;20035;-88
2022/11/28 11:59:59;;;;;;;12.27;7.15;;;8.90;99.90;;;;;;5092719;28;20028;-87
2022/11/28 12:02:45;;;;;;;11.05;7.28;;;8.90;99.90;;;;;;5078764;28;20130;-88
2022/11/28 12:05:26;;;;;;;11.75;7.57;;;8.90;99.90;;;;;;5095302;28;20085;-88
2022/11/28 12:07:55;;;;;;;10.57;6.88;;;8.90;99.90;;;;;;5096400;28;20093;-87
2022/11/28 12:10:25;;;;;;;11.93;7.43;;;8.90;99.90;;;;;;5092090;28;20382;-87
2022/11/28 12:12:51;;;;;;;10.75;7.10;;;8.90;99.90;;;;;;5063041;28;20039;-88
2022/11/28 12:15:58;;;;;;;10.63;6.45;;;8.90;99.90;;;;;;5089189;28;20126;-87
2022/11/28 12:18:45;;;;;;;11.10;6.35;;;8.90;99.90;;;;;;5089888;28;20044;-87
2022/11/28 12:21:12;;;;;;;9.77;6.00;;;8.90;99.90;;;;;;5088510;28;20079;-87
2022/11/28 12:24:02;;;;;;;12.07;6.90;;;8.90;99.90;;;;;;5085538;28;20093;-87
2022/11/28 12:26:44;;;;;;;11.73;6.70;;;8.90;99.90;;;;;;5088448;28;20043;-88
2022/11/28 12:29:29;;;;;;;10.48;5.95;;;8.90;99.90;;;;;;5117954;27;20044;-88
2022/11/28 12:32:06;;;;;;;10.43;5.90;;;8.90;99.90;;;;;;5090819;28;20072;-88
2022/11/28 12:35:04;;;;;;;10.15;5.70;;;9.00;99.90;;;;;;5074078;28;20118;-87
2022/11/28 12:37:48;;;;;;;10.25;5.68;;;8.90;99.90;;;;;;5098752;28;20074;-88
2022/11/28 12:40:36;;;;;;;10.63;5.93;;;8.90;99.90;;;;;;5104405;28;20083;-88
2022/11/28 12:43:18;;;;;;;10.70;6.38;;;8.90;99.90;;;;;;5090957;28;20702;-87
2022/11/28 12:46:02;;;;;;;10.45;5.50;;;8.90;99.90;;;;;;5088641;28;20059;-87
2022/11/28 12:48:54;;;;;;;10.07;5.82;;;8.90;99.90;;;;;;5088664;28;20077;-88
2022/11/28 12:51:37;;;;;;;10.97;5.17;;;8.90;99.90;;;;;;5099126;28;20039;-87
2022/11/28 12:54:25;;;;;;;10.43;5.63;;;8.90;99.90;;;;;;5092674;28;20044;-87
2022/11/28 12:57:05;;;;;;;9.80;5.15;;;8.90;99.90;;;;;;5079160;28;20043;-87
2022/11/28 12:59:44;;;;;;;8.32;4.85;;;8.90;99.90;;;;;;5067406;28;20111;-87
2022/11/28 13:02:48;;;;;;;10.13;5.53;;;8.90;99.90;;;;;;5094711;28;20044;-87
2022/11/28 13:05:20;;;;;;;9.70;5.68;;;9.00;99.90;;;;;;5102790;28;20419;-86
2022/11/28 13:07:53;;;;;;;10.85;6.25;;;8.90;99.90;;;;;;5110508;28;20046;-87
2022/11/28 13:10:30;;;;;;;10.98;5.35;;;9.00;99.90;;;;;;5089721;28;20115;-87
2022/11/28 13:13:04;;;;;;;10.70;5.30;;;9.00;99.90;;;;;;5111710;28;20390;-87